• Join FlightAware (Why Join?)
  • Login
  • US Flag 
11:19PM EDT


 

Airport Tracker/Info


-or-


 

Live Flight TrackerFlight Track Log ✈ DAL2191 ✈ 18-Jun-2013 ✈ KTPA - KATL

Flight Track Log - Related Links

Times and Time Zones

All times are in EDT time to prevent confusion due to time zone crossing. See the DAL2191 flight status page for this flight to view local times or setup timezone preferences in your user account.

Time Position Orientation Groundspeed Altitude Reporting Facility
EDT Latitude Longitude Course Direction KTS MPH feet Rate Location/Type
03:05PM 27.9500 -82.5500 North 186 214 700  Level Tampa TRACON
03:06PM 27.9000 -82.5667 196° South 204 235 2,400 1,980 Climbing Tampa TRACON
03:07PM 27.8500 -82.6000 211° Southwest 241 277 4,700 2,280 Climbing Tampa TRACON
03:08PM 28.2596 -82.6923 334° Northwest  Level FlightAware Approximate
03:08PM 27.9167 -82.6500 326° Northwest 285 328 7,300  Level Tampa TRACON
03:09PM 28.3573 -82.7513 327° Northwest  Level FlightAware Approximate
03:10PM 28.4598 -82.7833 North  Level FlightAware Approximate
03:11PM 28.5659 -82.8000 North  Level FlightAware Approximate
03:11PM 28.1019 -82.7044 345° North 318 366 11,000  Level Jacksonville Center
03:12PM 28.2061 -82.7325 347° North 353 406 12,700 1,980 Climbing Jacksonville Center
03:13PM 28.3167 -82.7628 346° North 384 442 15,000 2,100 Climbing Jacksonville Center
03:14PM 28.4294 -82.7933 347° North 402 463 17,000 2,040 Climbing Jacksonville Center
03:15PM 28.5506 -82.8122 352° North 422 486 19,100 1,980 Climbing Jacksonville Center
03:16PM 28.6633 -82.8667 337° Northwest 427 491 21,000 1,800 Climbing Jacksonville Center
03:17PM 28.7697 -82.9281 333° Northwest 427 491 22,800 1,560 Climbing Jacksonville Center
03:18PM 28.8825 -82.9969 332° Northwest 439 505 24,200 1,260 Climbing Jacksonville Center
03:19PM 28.9992 -83.0658 333° Northwest 458 527 25,400 1,200 Climbing Jacksonville Center
03:20PM 29.1117 -83.1422 329° Northwest 463 533 26,700 1,440 Climbing Jacksonville Center
03:21PM 29.2264 -83.2186 330° Northwest 468 539 28,300 1,500 Climbing Jacksonville Center
03:22PM 29.3558 -83.2642 343° North 468 539 29,800 1,200 Climbing Jacksonville Center
03:23PM 29.5019 -83.2719 357° North 468 539 30,800 1,080 Climbing Jacksonville Center
03:24PM 29.6417 -83.2797 357° North 478 550 32,000 1,320 Climbing Jacksonville Center
03:25PM 29.7753 -83.2756 North 483 556 33,500 900 Climbing Jacksonville Center
03:26PM 29.8944 -83.2208 22° Northeast 473 544 33,900 180 Climbing Jacksonville Center
03:27PM 30.0239 -83.1686 19° North 468 539 33,900  Level Jacksonville Center
03:28PM 30.1472 -83.1136 21° North 474 545 33,900  Level Jacksonville Center
03:29PM 30.2706 -83.0586 21° North 469 540 34,000 540 Climbing Jacksonville Center
03:30PM 30.3939 -83.0058 20° North 469 540 35,000 420 Climbing Jacksonville Center
03:31PM 30.5169 -82.9553 19° North 469 540 34,900 -60 Descending Jacksonville Center
03:32PM 30.6236 -82.9069 21° North 462 532 34,900  Level Jacksonville Center
03:33PM 30.7425 -82.8564 20° North 462 532 34,900  Level Jacksonville Center
03:34PM 30.8658 -82.8031 20° North 462 532 34,900  Level Jacksonville Center
03:35PM 30.9889 -82.7519 20° North 462 532 35,000  Climbing Jacksonville Center
03:36PM 31.1203 -82.6911 22° Northeast 462 532 35,000  Level Jacksonville Center
03:37PM 31.2183 -82.6447 22° Northeast 462 532 35,000  Level Jacksonville Center
03:38PM 31.3622 -82.5811 21° North 462 532 35,000 -60 Level Jacksonville Center
03:39PM 31.4833 -82.5294 20° North 468 539 34,900 -540 Descending Jacksonville Center
03:40PM 31.6064 -82.5267 North 441 507 34,000 -840 Descending Jacksonville Center
03:41PM 31.7278 -82.5678 344° North 437 503 33,300 -420 Descending Jacksonville Center
03:42PM 31.9200 -82.6294 345° North 450 518 33,000 -120 Descending Atlanta Center
03:43PM 32.0417 -82.6667 345° North 450 518 33,000 -360 Level Atlanta Center
03:44PM 32.1611 -82.7042 345° North 450 518 32,300 -900 Descending Atlanta Center
03:45PM 32.2722 -82.7714 333° Northwest 450 518 31,300 -960 Descending Atlanta Center
03:46PM 32.3672 -82.8683 319° Northwest 440 506 30,400 -960 Descending Atlanta Center
03:47PM 32.4600 -82.9631 319° Northwest 440 506 29,400 -1,080 Descending Atlanta Center
03:48PM 32.5483 -83.0556 319° Northwest 435 501 28,300 -1,500 Descending Atlanta Center
03:49PM 32.6389 -83.1508 318° Northwest 430 495 26,400 -2,100 Descending Atlanta Center
03:50PM 32.7272 -83.2389 320° Northwest 425 489 24,200 -2,160 Descending Atlanta Center
03:51PM 32.8111 -83.3269 319° Northwest 414 476 22,100 -1,860 Descending Atlanta Center
03:52PM 32.8908 -83.4106 319° Northwest 400 460 20,500 -1,500 Descending Atlanta Center
03:53PM 32.9664 -83.4892 319° Northwest 387 445 19,100 -1,260 Descending Atlanta Center
03:54PM 33.0294 -83.5681 314° West 349 402 18,000 -1,320 Descending Atlanta Center
03:55PM 33.0778 -83.6497 305° West 328 377 16,500 -2,160 Descending Atlanta Center
03:56PM 33.1333 -83.7167 315° West 320 368 14,000 -2,400 Descending Atlanta TRACON
03:57PM 33.2000 -83.7833 320° Northwest 327 376 12,000 -1,020 Descending Atlanta TRACON
03:58PM 33.2500 -83.8500 312° West 273 314 12,000 -360 Level Atlanta TRACON
03:59PM 33.3167 -83.9000 328° Northwest 247 284 11,300 -960 Descending Atlanta TRACON
04:00PM 33.3747 -83.9344 334° Northwest 234 269 10,100 -1,260 Descending Atlanta Center
04:01PM 33.4331 -83.9667 335° Northwest 234 269 8,800 -1,440 Descending Atlanta Center
04:02PM 33.4853 -84.0064 328° Northwest 229 264 7,300 -1,500 Descending Atlanta Center
04:03PM 33.5356 -84.0489 325° Northwest 224 258 5,900 -1,380 Descending Atlanta Center
04:05PM 33.6000 -84.1667 303° West 213 245 3,400 -1,020 Descending Atlanta TRACON
04:06PM 33.6167 -84.2167 292° West 188 216 3,000 -420 Descending Atlanta TRACON